sensor_id;sensor_type;location;lat;lon;timestamp;pressure;altitude;pressure_sealevel;temperature;humidity
30554;BME280;17335;50.720;7.452;2022-12-07T00:01:22;99419.06;;;3.20;100.00
30554;BME280;17335;50.720;7.452;2022-12-07T00:03:51;99414.88;;;3.16;100.00
30554;BME280;17335;50.720;7.452;2022-12-07T00:06:18;99420.75;;;3.21;100.00
30554;BME280;17335;50.720;7.452;2022-12-07T00:08:45;99418.97;;;3.22;100.00
30554;BME280;17335;50.720;7.452;2022-12-07T00:11:16;99422.28;;;3.25;100.00
30554;BME280;17335;50.720;7.452;2022-12-07T00:13:43;99418.84;;;3.23;100.00
30554;BME280;17335;50.720;7.452;2022-12-07T00:16:15;99415.25;;;3.24;100.00
30554;BME280;17335;50.720;7.452;2022-12-07T00:18:43;99416.00;;;3.26;100.00
30554;BME280;17335;50.720;7.452;2022-12-07T00:21:16;99418.47;;;3.29;100.00
30554;BME280;17335;50.720;7.452;2022-12-07T00:23:44;99419.69;;;3.38;100.00
30554;BME280;17335;50.720;7.452;2022-12-07T00:28:50;99411.53;;;3.41;100.00
30554;BME280;17335;50.720;7.452;2022-12-07T00:31:20;99411.25;;;3.46;100.00
30554;BME280;17335;50.720;7.452;2022-12-07T00:33:47;99401.66;;;3.43;100.00
30554;BME280;17335;50.720;7.452;2022-12-07T00:36:16;99412.19;;;3.45;100.00
30554;BME280;17335;50.720;7.452;2022-12-07T00:38:50;99399.56;;;3.48;100.00
30554;BME280;17335;50.720;7.452;2022-12-07T00:41:19;99402.50;;;3.44;100.00
30554;BME280;17335;50.720;7.452;2022-12-07T00:43:47;99401.38;;;3.48;100.00
30554;BME280;17335;50.720;7.452;2022-12-07T00:46:14;99398.72;;;3.48;100.00
30554;BME280;17335;50.720;7.452;2022-12-07T00:48:41;99388.94;;;3.48;100.00
30554;BME280;17335;50.720;7.452;2022-12-07T00:51:10;99383.00;;;3.45;100.00
30554;BME280;17335;50.720;7.452;2022-12-07T00:53:37;99390.00;;;3.46;100.00
30554;BME280;17335;50.720;7.452;2022-12-07T00:56:09;99381.19;;;3.45;100.00
30554;BME280;17335;50.720;7.452;2022-12-07T00:58:37;99384.72;;;3.46;100.00
30554;BME280;17335;50.720;7.452;2022-12-07T01:01:05;99383.66;;;3.48;100.00
30554;BME280;17335;50.720;7.452;2022-12-07T01:03:33;99378.63;;;3.44;100.00
30554;BME280;17335;50.720;7.452;2022-12-07T01:06:00;99381.09;;;3.47;100.00
30554;BME280;17335;50.720;7.452;2022-12-07T01:08:27;99392.75;;;3.44;100.00
30554;BME280;17335;50.720;7.452;2022-12-07T01:11:05;99379.19;;;3.49;100.00
30554;BME280;17335;50.720;7.452;2022-12-07T01:13:33;99382.47;;;3.52;100.00
30554;BME280;17335;50.720;7.452;2022-12-07T01:16:03;99383.25;;;3.54;100.00
30554;BME280;17335;50.720;7.452;2022-12-07T01:18:31;99375.59;;;3.50;100.00
30554;BME280;17335;50.720;7.452;2022-12-07T01:23:27;99382.81;;;3.48;100.00
30554;BME280;17335;50.720;7.452;2022-12-07T01:25:55;99381.84;;;3.49;100.00
30554;BME280;17335;50.720;7.452;2022-12-07T01:28:22;99384.09;;;3.55;100.00
30554;BME280;17335;50.720;7.452;2022-12-07T01:30:59;99380.50;;;3.56;100.00
30554;BME280;17335;50.720;7.452;2022-12-07T01:33:28;99385.59;;;3.59;100.00
30554;BME280;17335;50.720;7.452;2022-12-07T01:36:03;99380.50;;;3.56;100.00
30554;BME280;17335;50.720;7.452;2022-12-07T01:38:32;99385.41;;;3.62;100.00
30554;BME280;17335;50.720;7.452;2022-12-07T01:40:59;99382.19;;;3.57;100.00
30554;BME280;17335;50.720;7.452;2022-12-07T01:43:29;99378.59;;;3.58;100.00
30554;BME280;17335;50.720;7.452;2022-12-07T01:45:56;99385.41;;;3.62;100.00
30554;BME280;17335;50.720;7.452;2022-12-07T01:48:29;99377.78;;;3.70;100.00
30554;BME280;17335;50.720;7.452;2022-12-07T01:51:00;99383.50;;;3.64;100.00
30554;BME280;17335;50.720;7.452;2022-12-07T01:53:29;99392.72;;;3.59;100.00
30554;BME280;17335;50.720;7.452;2022-12-07T01:55:57;99383.50;;;3.64;100.00
30554;BME280;17335;50.720;7.452;2022-12-07T01:58:25;99378.63;;;3.71;100.00
30554;BME280;17335;50.720;7.452;2022-12-07T02:00:52;99383.31;;;3.67;100.00
30554;BME280;17335;50.720;7.452;2022-12-07T02:03:24;99370.44;;;3.61;100.00
30554;BME280;17335;50.720;7.452;2022-12-07T02:05:52;99374.13;;;3.59;100.00
30554;BME280;17335;50.720;7.452;2022-12-07T02:08:19;99378.41;;;3.61;100.00
30554;BME280;17335;50.720;7.452;2022-12-07T02:10:46;99373.66;;;3.66;100.00
30554;BME280;17335;50.720;7.452;2022-12-07T02:13:15;99372.88;;;3.64;100.00
30554;BME280;17335;50.720;7.452;2022-12-07T02:15:57;99369.03;;;3.55;100.00
30554;BME280;17335;50.720;7.452;2022-12-07T02:18:48;99362.69;;;3.58;100.00
30554;BME280;17335;50.720;7.452;2022-12-07T02:24:14;99360.66;;;3.62;100.00
30554;BME280;17335;50.720;7.452;2022-12-07T02:27:09;99361.50;;;3.62;100.00
30554;BME280;17335;50.720;7.452;2022-12-07T02:30:03;99354.53;;;3.61;100.00
30554;BME280;17335;50.720;7.452;2022-12-07T02:35:34;99345.94;;;3.70;100.00
30554;BME280;17335;50.720;7.452;2022-12-07T02:38:16;99361.72;;;3.59;100.00
30554;BME280;17335;50.720;7.452;2022-12-07T02:43:27;99364.16;;;3.62;100.00
30554;BME280;17335;50.720;7.452;2022-12-07T02:45:57;99365.97;;;3.62;100.00
30554;BME280;17335;50.720;7.452;2022-12-07T02:48:26;99366.63;;;3.65;100.00
30554;BME280;17335;50.720;7.452;2022-12-07T02:50:54;99358.47;;;3.68;100.00
30554;BME280;17335;50.720;7.452;2022-12-07T02:53:36;99349.75;;;3.66;100.00
30554;BME280;17335;50.720;7.452;2022-12-07T02:56:11;99345.00;;;3.71;100.00
30554;BME280;17335;50.720;7.452;2022-12-07T02:59:07;99348.03;;;3.65;100.00
30554;BME280;17335;50.720;7.452;2022-12-07T03:10:17;99344.03;;;3.72;100.00
30554;BME280;17335;50.720;7.452;2022-12-07T03:15:35;99344.88;;;3.73;100.00
30554;BME280;17335;50.720;7.452;2022-12-07T03:18:07;99344.88;;;3.73;100.00
30554;BME280;17335;50.720;7.452;2022-12-07T03:20:35;99334.88;;;3.64;100.00
30554;BME280;17335;50.720;7.452;2022-12-07T03:23:06;99333.06;;;3.64;100.00
30554;BME280;17335;50.720;7.452;2022-12-07T03:25:41;99329.63;;;3.77;100.00
30554;BME280;17335;50.720;7.452;2022-12-07T03:28:09;99338.63;;;3.74;100.00
30554;BME280;17335;50.720;7.452;2022-12-07T03:30:46;99345.66;;;3.75;100.00
30554;BME280;17335;50.720;7.452;2022-12-07T03:33:21;99339.78;;;3.70;100.00
30554;BME280;17335;50.720;7.452;2022-12-07T03:38:32;99331.91;;;3.68;100.00
30554;BME280;17335;50.720;7.452;2022-12-07T03:41:06;99333.22;;;3.75;100.00
30554;BME280;17335;50.720;7.452;2022-12-07T03:43:34;99326.63;;;3.68;100.00
30554;BME280;17335;50.720;7.452;2022-12-07T03:48:46;99330.75;;;3.72;100.00
30554;BME280;17335;50.720;7.452;2022-12-07T03:51:24;99335.50;;;3.67;100.00
30554;BME280;17335;50.720;7.452;2022-12-07T03:54:39;99339.16;;;3.66;100.00
30554;BME280;17335;50.720;7.452;2022-12-07T03:56:41;99331.31;;;3.78;100.00
30554;BME280;17335;50.720;7.452;2022-12-07T03:59:09;99339.06;;;3.81;100.00
30554;BME280;17335;50.720;7.452;2022-12-07T04:01:37;99335.13;;;3.73;100.00
30554;BME280;17335;50.720;7.452;2022-12-07T04:04:03;99332.13;;;3.78;100.00
30554;BME280;17335;50.720;7.452;2022-12-07T04:06:30;99329.63;;;3.77;100.00
30554;BME280;17335;50.720;7.452;2022-12-07T04:08:56;99332.38;;;3.75;100.00
30554;BME280;17335;50.720;7.452;2022-12-07T04:11:23;99345.13;;;3.83;100.00
30554;BME280;17335;50.720;7.452;2022-12-07T04:13:49;99337.88;;;3.72;100.00
30554;BME280;17335;50.720;7.452;2022-12-07T04:16:34;99339.38;;;3.76;100.00
30554;BME280;17335;50.720;7.452;2022-12-07T04:19:09;99345.66;;;3.75;100.00
30554;BME280;17335;50.720;7.452;2022-12-07T04:21:36;99336.63;;;3.78;100.00
30554;BME280;17335;50.720;7.452;2022-12-07T04:24:03;99341.19;;;3.75;100.00
30554;BME280;17335;50.720;7.452;2022-12-07T04:26:30;99335.66;;;3.79;100.00
30554;BME280;17335;50.720;7.452;2022-12-07T04:28:56;99342.34;;;3.71;100.00
30554;BME280;17335;50.720;7.452;2022-12-07T04:31:23;99334.94;;;3.77;100.00
30554;BME280;17335;50.720;7.452;2022-12-07T04:33:49;99335.31;;;3.70;100.00
30554;BME280;17335;50.720;7.452;2022-12-07T04:36:16;99329.81;;;3.73;100.00
30554;BME280;17335;50.720;7.452;2022-12-07T04:38:43;99339.38;;;3.76;100.00
30554;BME280;17335;50.720;7.452;2022-12-07T04:41:09;99338.91;;;3.69;100.00
30554;BME280;17335;50.720;7.452;2022-12-07T04:43:36;99342.53;;;3.68;100.00
30554;BME280;17335;50.720;7.452;2022-12-07T04:46:02;99334.25;;;3.73;100.00
30554;BME280;17335;50.720;7.452;2022-12-07T04:48:29;99332.66;;;3.70;100.00
30554;BME280;17335;50.720;7.452;2022-12-07T04:50:56;99330.75;;;3.72;100.00
30554;BME280;17335;50.720;7.452;2022-12-07T04:53:22;99332.56;;;3.72;100.00
30554;BME280;17335;50.720;7.452;2022-12-07T04:55:49;99332.03;;;3.80;100.00
30554;BME280;17335;50.720;7.452;2022-12-07T04:58:15;99334.94;;;3.77;100.00
30554;BME280;17335;50.720;7.452;2022-12-07T05:00:42;99332.38;;;3.75;100.00
30554;BME280;17335;50.720;7.452;2022-12-07T05:03:08;99330.16;;;3.82;100.00
30554;BME280;17335;50.720;7.452;2022-12-07T05:05:35;99344.03;;;3.72;100.00
30554;BME280;17335;50.720;7.452;2022-12-07T05:08:01;99344.56;;;3.78;100.00
30554;BME280;17335;50.720;7.452;2022-12-07T05:10:28;99335.72;;;3.64;100.00
30554;BME280;17335;50.720;7.452;2022-12-07T05:12:54;99342.28;;;3.59;100.00
30554;BME280;17335;50.720;7.452;2022-12-07T05:15:22;99341.25;;;3.61;100.00
30554;BME280;17335;50.720;7.452;2022-12-07T05:17:48;99341.25;;;3.61;100.00
30554;BME280;17335;50.720;7.452;2022-12-07T05:20:15;99335.72;;;3.64;100.00
30554;BME280;17335;50.720;7.452;2022-12-07T05:22:42;99338.97;;;3.55;100.00
30554;BME280;17335;50.720;7.452;2022-12-07T05:25:08;99347.78;;;3.55;100.00
30554;BME280;17335;50.720;7.452;2022-12-07T05:27:35;99351.09;;;3.59;100.00
30554;BME280;17335;50.720;7.452;2022-12-07T05:30:01;99339.28;;;3.50;100.00
30554;BME280;17335;50.720;7.452;2022-12-07T05:32:28;99337.03;;;3.44;100.00
30554;BME280;17335;50.720;7.452;2022-12-07T05:34:55;99339.50;;;3.47;100.00
30554;BME280;17335;50.720;7.452;2022-12-07T05:37:21;99333.31;;;3.47;100.00
30554;BME280;17335;50.720;7.452;2022-12-07T05:39:48;99333.50;;;3.44;100.00
30554;BME280;17335;50.720;7.452;2022-12-07T05:42:14;99341.59;;;3.42;100.00
30554;BME280;17335;50.720;7.452;2022-12-07T05:44:45;99331.63;;;3.46;100.00
30554;BME280;17335;50.720;7.452;2022-12-07T05:47:13;99327.44;;;3.56;100.00
30554;BME280;17335;50.720;7.452;2022-12-07T05:49:40;99326.34;;;3.59;100.00
30554;BME280;17335;50.720;7.452;2022-12-07T05:52:07;99341.00;;;3.51;100.00
30554;BME280;17335;50.720;7.452;2022-12-07T05:54:35;99333.38;;;3.60;100.00
30554;BME280;17335;50.720;7.452;2022-12-07T05:57:01;99331.22;;;3.52;100.00
30554;BME280;17335;50.720;7.452;2022-12-07T05:59:28;99333.47;;;3.58;100.00
30554;BME280;17335;50.720;7.452;2022-12-07T06:04:28;99325.50;;;3.58;100.00
30554;BME280;17335;50.720;7.452;2022-12-07T06:06:55;99326.25;;;3.60;100.00
30554;BME280;17335;50.720;7.452;2022-12-07T06:09:24;99330.50;;;3.63;100.00
30554;BME280;17335;50.720;7.452;2022-12-07T06:11:51;99325.31;;;3.61;100.00
30554;BME280;17335;50.720;7.452;2022-12-07T06:14:37;99330.31;;;3.66;100.00
30554;BME280;17335;50.720;7.452;2022-12-07T06:17:04;99330.00;;;3.70;100.00
30554;BME280;17335;50.720;7.452;2022-12-07T06:19:30;99331.38;;;3.63;100.00
30554;BME280;17335;50.720;7.452;2022-12-07T06:21:57;99336.13;;;3.58;100.00
30554;BME280;17335;50.720;7.452;2022-12-07T06:24:24;99335.94;;;3.61;100.00
30554;BME280;17335;50.720;7.452;2022-12-07T06:26:51;99332.31;;;3.62;100.00
30554;BME280;17335;50.720;7.452;2022-12-07T06:29:18;99340.00;;;3.67;100.00
30554;BME280;17335;50.720;7.452;2022-12-07T06:31:44;99341.25;;;3.61;100.00
30554;BME280;17335;50.720;7.452;2022-12-07T06:34:14;99348.44;;;3.59;100.00
30554;BME280;17335;50.720;7.452;2022-12-07T06:36:42;99343.91;;;3.61;100.00
30554;BME280;17335;50.720;7.452;2022-12-07T06:39:09;99348.44;;;3.59;100.00
30554;BME280;17335;50.720;7.452;2022-12-07T06:41:36;99346.56;;;3.61;100.00
30554;BME280;17335;50.720;7.452;2022-12-07T06:44:04;99344.75;;;3.62;100.00
30554;BME280;17335;50.720;7.452;2022-12-07T06:46:31;99352.81;;;3.60;100.00
30554;BME280;17335;50.720;7.452;2022-12-07T06:48:58;99352.72;;;3.62;100.00
30554;BME280;17335;50.720;7.452;2022-12-07T06:51:24;99355.16;;;3.65;100.00
30554;BME280;17335;50.720;7.452;2022-12-07T06:53:52;99353.34;;;3.65;100.00
30554;BME280;17335;50.720;7.452;2022-12-07T06:56:18;99359.81;;;3.61;100.00
30554;BME280;17335;50.720;7.452;2022-12-07T06:58:45;99351.09;;;3.59;100.00
30554;BME280;17335;50.720;7.452;2022-12-07T07:01:13;99357.19;;;3.61;100.00
30554;BME280;17335;50.720;7.452;2022-12-07T07:03:40;99355.25;;;3.63;100.00
30554;BME280;17335;50.720;7.452;2022-12-07T07:06:08;99353.97;;;3.56;100.00
30554;BME280;17335;50.720;7.452;2022-12-07T07:08:36;99364.22;;;3.48;100.00
30554;BME280;17335;50.720;7.452;2022-12-07T07:11:04;99362.22;;;3.51;100.00
30554;BME280;17335;50.720;7.452;2022-12-07T07:13:31;99358.59;;;3.52;100.00
30554;BME280;17335;50.720;7.452;2022-12-07T07:15:57;99364.59;;;3.56;100.00
30554;BME280;17335;50.720;7.452;2022-12-07T07:18:24;99367.06;;;3.45;100.00
30554;BME280;17335;50.720;7.452;2022-12-07T07:20:52;99366.13;;;3.46;100.00
30554;BME280;17335;50.720;7.452;2022-12-07T07:23:20;99355.00;;;3.53;100.00
30554;BME280;17335;50.720;7.452;2022-12-07T07:25:46;99363.72;;;3.55;100.00
30554;BME280;17335;50.720;7.452;2022-12-07T07:28:13;99366.69;;;3.51;100.00
30554;BME280;17335;50.720;7.452;2022-12-07T07:30:40;99372.00;;;3.51;100.00
30554;BME280;17335;50.720;7.452;2022-12-07T07:33:07;99362.31;;;3.50;100.00
30554;BME280;17335;50.720;7.452;2022-12-07T07:35:34;99368.31;;;3.39;100.00
30554;BME280;17335;50.720;7.452;2022-12-07T07:38:01;99369.81;;;3.43;100.00
30554;BME280;17335;50.720;7.452;2022-12-07T07:40:28;99379.03;;;3.37;100.00
30554;BME280;17335;50.720;7.452;2022-12-07T07:42:57;99376.38;;;3.37;100.00
30554;BME280;17335;50.720;7.452;2022-12-07T07:45:25;99375.13;;;3.43;100.00
30554;BME280;17335;50.720;7.452;2022-12-07T07:47:52;99372.75;;;3.38;100.00
30554;BME280;17335;50.720;7.452;2022-12-07T07:50:19;99375.63;;;3.35;100.00
30554;BME280;17335;50.720;7.452;2022-12-07T07:52:47;99370.22;;;3.37;100.00
30554;BME280;17335;50.720;7.452;2022-12-07T07:55:14;99377.50;;;3.48;100.00
30554;BME280;17335;50.720;7.452;2022-12-07T07:57:41;99375.31;;;3.40;100.00
30554;BME280;17335;50.720;7.452;2022-12-07T08:00:11;99377.03;;;3.41;100.00
30554;BME280;17335;50.720;7.452;2022-12-07T08:02:39;99380.25;;;3.46;100.00
30554;BME280;17335;50.720;7.452;2022-12-07T08:05:06;99381.09;;;3.47;100.00
30554;BME280;17335;50.720;7.452;2022-12-07T08:07:33;99377.06;;;3.54;100.00
30554;BME280;17335;50.720;7.452;2022-12-07T08:10:00;99372.00;;;3.51;100.00
30554;BME280;17335;50.720;7.452;2022-12-07T08:12:27;99372.00;;;3.51;100.00
30554;BME280;17335;50.720;7.452;2022-12-07T08:14:53;99370.19;;;3.51;100.00
30554;BME280;17335;50.720;7.452;2022-12-07T08:17:20;99372.53;;;3.56;100.00
30554;BME280;17335;50.720;7.452;2022-12-07T08:19:46;99373.50;;;3.55;100.00
30554;BME280;17335;50.720;7.452;2022-12-07T08:22:13;99368.09;;;3.56;100.00
30554;BME280;17335;50.720;7.452;2022-12-07T08:24:39;99379.44;;;3.59;100.00
30554;BME280;17335;50.720;7.452;2022-12-07T08:27:06;99379.06;;;3.65;100.00
30554;BME280;17335;50.720;7.452;2022-12-07T08:29:33;99374.69;;;3.64;100.00
30554;BME280;17335;50.720;7.452;2022-12-07T08:32:00;99372.97;;;3.63;100.00
30554;BME280;17335;50.720;7.452;2022-12-07T08:34:34;99369.66;;;3.59;100.00
30554;BME280;17335;50.720;7.452;2022-12-07T08:37:02;99371.84;;;3.67;100.00
30554;BME280;17335;50.720;7.452;2022-12-07T08:39:28;99382.47;;;3.67;100.00
30554;BME280;17335;50.720;7.452;2022-12-07T08:41:57;99375.34;;;3.67;100.00
30554;BME280;17335;50.720;7.452;2022-12-07T08:44:24;99372.69;;;3.67;100.00
30554;BME280;17335;50.720;7.452;2022-12-07T08:46:55;99370.69;;;3.71;100.00
30554;BME280;17335;50.720;7.452;2022-12-07T08:49:27;99384.41;;;3.78;100.00
30554;BME280;17335;50.720;7.452;2022-12-07T08:51:55;99380.63;;;3.82;100.00
30554;BME280;17335;50.720;7.452;2022-12-07T08:54:22;99377.28;;;3.78;100.00
30554;BME280;17335;50.720;7.452;2022-12-07T08:56:49;99382.72;;;3.77;100.00
30554;BME280;17335;50.720;7.452;2022-12-07T08:59:24;99384.94;;;3.83;100.00
30554;BME280;17335;50.720;7.452;2022-12-07T09:01:52;99380.63;;;3.82;100.00
30554;BME280;17335;50.720;7.452;2022-12-07T09:04:19;99378.81;;;3.82;100.00
30554;BME280;17335;50.720;7.452;2022-12-07T09:06:49;99376.69;;;3.87;100.00
30554;BME280;17335;50.720;7.452;2022-12-07T09:09:16;99386.16;;;3.91;100.00
30554;BME280;17335;50.720;7.452;2022-12-07T09:11:42;99393.28;;;3.91;100.00
30554;BME280;17335;50.720;7.452;2022-12-07T09:14:12;99392.19;;;3.81;100.00
30554;BME280;17335;50.720;7.452;2022-12-07T09:16:39;99392.72;;;3.86;100.00
30554;BME280;17335;50.720;7.452;2022-12-07T09:19:05;99391.81;;;3.72;100.00
30554;BME280;17335;50.720;7.452;2022-12-07T09:21:31;99390.88;;;3.73;100.00
30554;BME280;17335;50.720;7.452;2022-12-07T09:23:58;99393.72;;;3.70;100.00
30554;BME280;17335;50.720;7.452;2022-12-07T09:26:24;99398.09;;;3.71;100.00
30554;BME280;17335;50.720;7.452;2022-12-07T09:28:51;99387.81;;;3.80;100.00
30554;BME280;17335;50.720;7.452;2022-12-07T09:31:17;99397.59;;;3.79;100.00
30554;BME280;17335;50.720;7.452;2022-12-07T09:33:57;99394.44;;;3.87;100.00
30554;BME280;17335;50.720;7.452;2022-12-07T09:36:25;99390.44;;;3.94;100.00
30554;BME280;17335;50.720;7.452;2022-12-07T09:38:52;99385.31;;;3.91;100.00
30554;BME280;17335;50.720;7.452;2022-12-07T09:41:19;99384.94;;;3.83;100.00
30554;BME280;17335;50.720;7.452;2022-12-07T09:43:46;99384.66;;;3.87;100.00
30554;BME280;17335;50.720;7.452;2022-12-07T09:46:15;99377.44;;;3.89;100.00
30554;BME280;17335;50.720;7.452;2022-12-07T09:48:43;99378.28;;;3.90;100.00
30554;BME280;17335;50.720;7.452;2022-12-07T09:51:23;99381.47;;;3.95;100.00
30554;BME280;17335;50.720;7.452;2022-12-07T09:53:53;99377.59;;;4.01;100.00
30554;BME280;17335;50.720;7.452;2022-12-07T09:56:20;99385.56;;;4.01;100.00
30554;BME280;17335;50.720;7.452;2022-12-07T09:58:48;99382.19;;;4.11;100.00
30554;BME280;17335;50.720;7.452;2022-12-07T10:01:18;99380.56;;;4.09;100.00
30554;BME280;17335;50.720;7.452;2022-12-07T10:03:52;99379.28;;;4.02;100.00
30554;BME280;17335;50.720;7.452;2022-12-07T10:06:19;99375.47;;;4.06;100.00
30554;BME280;17335;50.720;7.452;2022-12-07T10:08:46;99371.34;;;4.15;100.00
30554;BME280;17335;50.720;7.452;2022-12-07T10:11:13;99370.84;;;4.35;100.00
30554;BME280;17335;50.720;7.452;2022-12-07T10:13:48;99378.59;;;4.25;100.00
30554;BME280;17335;50.720;7.452;2022-12-07T10:18:52;99363.41;;;3.87;100.00
30554;BME280;17335;50.720;7.452;2022-12-07T10:21:23;99356.50;;;3.85;100.00
30554;BME280;17335;50.720;7.452;2022-12-07T10:26:36;99358.84;;;3.89;100.00
30554;BME280;17335;50.720;7.452;2022-12-07T10:29:24;99353.19;;;3.81;100.00
30554;BME280;17335;50.720;7.452;2022-12-07T10:34:35;99345.66;;;3.75;100.00
30554;BME280;17335;50.720;7.452;2022-12-07T10:39:50;99347.22;;;3.78;100.00
30554;BME280;17335;50.720;7.452;2022-12-07T10:44:45;99341.63;;;3.82;100.00
30554;BME280;17335;50.720;7.452;2022-12-07T10:47:38;99341.31;;;3.87;100.00
30554;BME280;17335;50.720;7.452;2022-12-07T11:06:37;99319.59;;;4.46;100.00
30554;BME280;17335;50.720;7.452;2022-12-07T11:09:50;99310.97;;;4.68;100.00
30554;BME280;17335;50.720;7.452;2022-12-07T11:15:37;99310.53;;;4.74;100.00
30554;BME280;17335;50.720;7.452;2022-12-07T11:27:20;99289.34;;;4.85;100.00
30554;BME280;17335;50.720;7.452;2022-12-07T11:30:02;99288.00;;;4.80;100.00
30554;BME280;17335;50.720;7.452;2022-12-07T11:32:53;99284.19;;;4.71;100.00
30554;BME280;17335;50.720;7.452;2022-12-07T11:35:43;99285.22;;;4.81;100.00
30554;BME280;17335;50.720;7.452;2022-12-07T11:38:17;99278.50;;;4.88;100.00
30554;BME280;17335;50.720;7.452;2022-12-07T11:40:56;99275.31;;;4.83;100.00
30554;BME280;17335;50.720;7.452;2022-12-07T11:43:53;99284.34;;;4.94;100.00
30554;BME280;17335;50.720;7.452;2022-12-07T11:46:25;99274.53;;;4.94;100.00
30554;BME280;17335;50.720;7.452;2022-12-07T11:51:42;99267.63;;;4.92;100.00
30554;BME280;17335;50.720;7.452;2022-12-07T11:54:18;99261.13;;;4.96;100.00
30554;BME280;17335;50.720;7.452;2022-12-07T11:56:49;99265.34;;;5.11;100.00
30554;BME280;17335;50.720;7.452;2022-12-07T11:59:25;99261.69;;;5.12;100.00
30554;BME280;17335;50.720;7.452;2022-12-07T12:01:58;99258.06;;;5.26;100.00
30554;BME280;17335;50.720;7.452;2022-12-07T12:04:32;99250.09;;;5.37;100.00
30554;BME280;17335;50.720;7.452;2022-12-07T12:07:00;99244.66;;;5.39;100.00
30554;BME280;17335;50.720;7.452;2022-12-07T12:09:53;99238.13;;;5.43;100.00
30554;BME280;17335;50.720;7.452;2022-12-07T12:15:52;99244.56;;;5.40;100.00
30554;BME280;17335;50.720;7.452;2022-12-07T12:18:40;99237.81;;;5.23;100.00
30554;BME280;17335;50.720;7.452;2022-12-07T12:21:17;99230.47;;;5.03;100.00
30554;BME280;17335;50.720;7.452;2022-12-07T12:23:50;99241.25;;;4.88;100.00
30554;BME280;17335;50.720;7.452;2022-12-07T12:26:23;99242.38;;;4.73;100.00
30554;BME280;17335;50.720;7.452;2022-12-07T12:28:54;99240.13;;;4.67;100.00
30554;BME280;17335;50.720;7.452;2022-12-07T12:33:57;99232.09;;;4.56;100.00
30554;BME280;17335;50.720;7.452;2022-12-07T12:36:42;99238.47;;;4.66;100.00
30554;BME280;17335;50.720;7.452;2022-12-07T12:39:12;99227.72;;;4.55;100.00
30554;BME280;17335;50.720;7.452;2022-12-07T12:46:57;99225.91;;;4.55;100.00
30554;BME280;17335;50.720;7.452;2022-12-07T12:49:33;99219.34;;;4.48;100.00
30554;BME280;17335;50.720;7.452;2022-12-07T12:57:36;99230.38;;;4.55;100.00
30554;BME280;17335;50.720;7.452;2022-12-07T13:00:21;99237.53;;;4.41;100.00
30554;BME280;17335;50.720;7.452;2022-12-07T13:02:55;99227.03;;;4.27;100.00
30554;BME280;17335;50.720;7.452;2022-12-07T13:05:31;99225.75;;;4.20;100.00
30554;BME280;17335;50.720;7.452;2022-12-07T13:08:00;99220.13;;;4.11;100.00
30554;BME280;17335;50.720;7.452;2022-12-07T13:23:36;99219.78;;;3.78;100.00
30554;BME280;17335;50.720;7.452;2022-12-07T13:31:46;99211.50;;;3.82;100.00
30554;BME280;17335;50.720;7.452;2022-12-07T13:34:33;99211.94;;;3.89;100.00
30554;BME280;17335;50.720;7.452;2022-12-07T13:37:24;99207.06;;;3.96;100.00
30554;BME280;17335;50.720;7.452;2022-12-07T13:39:54;99212.78;;;4.02;100.00
30554;BME280;17335;50.720;7.452;2022-12-07T13:42:33;99203.66;;;4.06;100.00
30554;BME280;17335;50.720;7.452;2022-12-07T13:45:24;99205.03;;;3.99;100.00
30554;BME280;17335;50.720;7.452;2022-12-07T13:48:31;99206.94;;;3.97;100.00
30554;BME280;17335;50.720;7.452;2022-12-07T13:51:00;99202.25;;;3.88;100.00
30554;BME280;17335;50.720;7.452;2022-12-07T13:53:28;99197.06;;;3.86;100.00
30554;BME280;17335;50.720;7.452;2022-12-07T13:55:59;99194.72;;;3.94;100.00
30554;BME280;17335;50.720;7.452;2022-12-07T13:58:29;99203.22;;;4.00;100.00
30554;BME280;17335;50.720;7.452;2022-12-07T14:00:56;99197.91;;;4.00;100.00
30554;BME280;17335;50.720;7.452;2022-12-07T14:03:27;99189.41;;;4.07;100.00
30554;BME280;17335;50.720;7.452;2022-12-07T14:06:27;99195.59;;;4.08;100.00
30554;BME280;17335;50.720;7.452;2022-12-07T14:09:18;99194.28;;;4.13;100.00
30554;BME280;17335;50.720;7.452;2022-12-07T14:11:47;99183.03;;;4.10;100.00
30554;BME280;17335;50.720;7.452;2022-12-07T14:14:24;99183.34;;;4.05;100.00
30554;BME280;17335;50.720;7.452;2022-12-07T14:17:12;99195.38;;;4.11;100.00
30554;BME280;17335;50.720;7.452;2022-12-07T14:19:42;99187.50;;;4.09;100.00
30554;BME280;17335;50.720;7.452;2022-12-07T14:22:27;99192.06;;;4.20;100.00
30554;BME280;17335;50.720;7.452;2022-12-07T14:27:37;99185.91;;;4.20;100.00
30554;BME280;17335;50.720;7.452;2022-12-07T14:30:05;99181.84;;;4.27;100.00
30554;BME280;17335;50.720;7.452;2022-12-07T14:32:35;99174.63;;;4.29;100.00
30554;BME280;17335;50.720;7.452;2022-12-07T14:35:12;99175.69;;;4.26;100.00
30554;BME280;17335;50.720;7.452;2022-12-07T14:37:40;99171.53;;;4.22;100.00
30554;BME280;17335;50.720;7.452;2022-12-07T14:40:13;99175.59;;;4.15;100.00
30554;BME280;17335;50.720;7.452;2022-12-07T14:42:41;99163.88;;;4.18;100.00
30554;BME280;17335;50.720;7.452;2022-12-07T14:45:20;99172.63;;;4.20;100.00
30554;BME280;17335;50.720;7.452;2022-12-07T14:47:47;99166.25;;;4.09;100.00
30554;BME280;17335;50.720;7.452;2022-12-07T14:50:37;99176.00;;;4.09;100.00
30554;BME280;17335;50.720;7.452;2022-12-07T14:53:14;99170.81;;;4.07;100.00
30554;BME280;17335;50.720;7.452;2022-12-07T14:55:49;99163.28;;;4.01;100.00
30554;BME280;17335;50.720;7.452;2022-12-07T14:58:17;99159.22;;;4.08;100.00
30554;BME280;17335;50.720;7.452;2022-12-07T15:00:44;99150.94;;;4.00;100.00
30554;BME280;17335;50.720;7.452;2022-12-07T15:03:11;99150.84;;;4.02;100.00
30554;BME280;17335;50.720;7.452;2022-12-07T15:05:39;99144.47;;;4.04;100.00
30554;BME280;17335;50.720;7.452;2022-12-07T15:08:08;99140.84;;;4.05;100.00
30554;BME280;17335;50.720;7.452;2022-12-07T15:10:36;99133.53;;;3.96;100.00
30554;BME280;17335;50.720;7.452;2022-12-07T15:13:05;99140.25;;;3.89;100.00
30554;BME280;17335;50.720;7.452;2022-12-07T15:15:52;99141.19;;;3.88;100.00